Batesville, South Carolina
Current Conditions -  °F | °C
As of 6:53 PM on Sunday 21 Dec 2014 (Local Time) from KGMU Reporting Station
Overcast Overcast  
Wind Chill: 45°   Ceiling: 2800
Heat Index: 48°   Visibility: 10mi
Dew Point: 39°   Wind: 7mph
Humidity: 71%   Direction: 50°NE
Pressure: 30.17"   Gusts: NA
Location:  34.8105°N, 82.3328°W
Report Text: KGMU 212353Z 05006KT 10SM OVC028 09/04 A3017 RMK AO2 SLP221 T00890039 10106 20089 53004
Loading
Personal Weather Stations






























Interactive Weather Map New forecast layout! Learn more

10-Day Weather Forecast

Advertisements
Track Severe Weather on mobile